sensor_id;sensor_type;location;lat;lon;timestamp;temperature;humidity
8736;DHT22;4404;49.308;12.178;2023-07-16T05:43:30;19.80;99.90
8736;DHT22;4404;49.308;12.178;2023-07-16T05:45:32;19.80;99.90
8736;DHT22;4404;49.308;12.178;2023-07-16T05:47:34;19.80;99.90
8736;DHT22;4404;49.308;12.178;2023-07-16T05:49:36;19.80;99.90
8736;DHT22;4404;49.308;12.178;2023-07-16T05:51:38;19.80;99.90
8736;DHT22;4404;49.308;12.178;2023-07-16T05:53:40;19.80;99.90
8736;DHT22;4404;49.308;12.178;2023-07-16T05:55:43;19.80;99.90
8736;DHT22;4404;49.308;12.178;2023-07-16T05:57:45;19.90;99.90
8736;DHT22;4404;49.308;12.178;2023-07-16T05:59:48;19.90;99.90
8736;DHT22;4404;49.308;12.178;2023-07-16T06:01:50;20.00;99.90
8736;DHT22;4404;49.308;12.178;2023-07-16T06:03:52;19.90;99.90
8736;DHT22;4404;49.308;12.178;2023-07-16T06:05:55;20.00;99.90
8736;DHT22;4404;49.308;12.178;2023-07-16T06:07:57;20.10;99.90
8736;DHT22;4404;49.308;12.178;2023-07-16T06:09:59;20.20;99.90
8736;DHT22;4404;49.308;12.178;2023-07-16T06:12:02;20.10;99.90
8736;DHT22;4404;49.308;12.178;2023-07-16T06:14:04;20.20;99.90
8736;DHT22;4404;49.308;12.178;2023-07-16T06:16:07;20.20;99.90
8736;DHT22;4404;49.308;12.178;2023-07-16T06:18:09;20.10;99.90
8736;DHT22;4404;49.308;12.178;2023-07-16T06:20:12;20.00;99.90
8736;DHT22;4404;49.308;12.178;2023-07-16T06:22:14;19.90;99.90
8736;DHT22;4404;49.308;12.178;2023-07-16T06:24:15;19.80;99.90
8736;DHT22;4404;49.308;12.178;2023-07-16T06:26:17;19.90;99.90
8736;DHT22;4404;49.308;12.178;2023-07-16T06:28:19;20.00;99.90
8736;DHT22;4404;49.308;12.178;2023-07-16T06:30:21;20.00;99.90
8736;DHT22;4404;49.308;12.178;2023-07-16T06:32:25;19.90;99.90
8736;DHT22;4404;49.308;12.178;2023-07-16T06:34:26;19.80;99.90
8736;DHT22;4404;49.308;12.178;2023-07-16T06:36:28;19.80;99.90
8736;DHT22;4404;49.308;12.178;2023-07-16T06:38:30;19.60;99.90
8736;DHT22;4404;49.308;12.178;2023-07-16T06:40:32;19.60;99.90
8736;DHT22;4404;49.308;12.178;2023-07-16T06:42:34;19.70;99.90
8736;DHT22;4404;49.308;12.178;2023-07-16T06:44:36;19.80;99.90
8736;DHT22;4404;49.308;12.178;2023-07-16T06:46:38;20.00;99.90
8736;DHT22;4404;49.308;12.178;2023-07-16T06:48:42;19.90;99.90
8736;DHT22;4404;49.308;12.178;2023-07-16T06:50:44;19.70;99.90
8736;DHT22;4404;49.308;12.178;2023-07-16T06:52:46;19.60;99.90
8736;DHT22;4404;49.308;12.178;2023-07-16T06:54:48;19.60;99.90
8736;DHT22;4404;49.308;12.178;2023-07-16T06:56:50;19.30;99.90
8736;DHT22;4404;49.308;12.178;2023-07-16T06:58:53;19.40;99.90
8736;DHT22;4404;49.308;12.178;2023-07-16T07:00:56;19.20;99.90
8736;DHT22;4404;49.308;12.178;2023-07-16T07:02:58;19.10;99.90
8736;DHT22;4404;49.308;12.178;2023-07-16T07:05:02;19.20;99.90
8736;DHT22;4404;49.308;12.178;2023-07-16T07:07:04;19.10;99.90
8736;DHT22;4404;49.308;12.178;2023-07-16T07:09:07;19.20;99.90
8736;DHT22;4404;49.308;12.178;2023-07-16T07:11:09;19.30;99.90
8736;DHT22;4404;49.308;12.178;2023-07-16T07:13:11;19.30;99.90
8736;DHT22;4404;49.308;12.178;2023-07-16T07:15:13;19.20;99.90
8736;DHT22;4404;49.308;12.178;2023-07-16T07:17:17;19.10;99.90
8736;DHT22;4404;49.308;12.178;2023-07-16T07:19:21;19.00;99.90
8736;DHT22;4404;49.308;12.178;2023-07-16T07:21:24;19.00;99.90
8736;DHT22;4404;49.308;12.178;2023-07-16T07:23:26;19.20;99.90
8736;DHT22;4404;49.308;12.178;2023-07-16T07:25:28;19.40;99.90
8736;DHT22;4404;49.308;12.178;2023-07-16T07:27:30;19.80;99.90
8736;DHT22;4404;49.308;12.178;2023-07-16T07:29:32;20.10;99.90
8736;DHT22;4404;49.308;12.178;2023-07-16T07:31:36;20.20;99.90
8736;DHT22;4404;49.308;12.178;2023-07-16T07:33:38;20.20;99.90
8736;DHT22;4404;49.308;12.178;2023-07-16T07:35:40;20.20;99.90
8736;DHT22;4404;49.308;12.178;2023-07-16T07:37:44;20.00;99.90
8736;DHT22;4404;49.308;12.178;2023-07-16T07:39:51;19.70;99.90
8736;DHT22;4404;49.308;12.178;2023-07-16T07:41:54;19.70;99.90
8736;DHT22;4404;49.308;12.178;2023-07-16T07:43:57;19.80;99.90
8736;DHT22;4404;49.308;12.178;2023-07-16T07:45:59;19.80;99.90
8736;DHT22;4404;49.308;12.178;2023-07-16T07:48:01;19.90;99.90
8736;DHT22;4404;49.308;12.178;2023-07-16T07:50:04;19.80;99.90
8736;DHT22;4404;49.308;12.178;2023-07-16T07:52:08;19.60;99.90
8736;DHT22;4404;49.308;12.178;2023-07-16T07:54:13;19.70;99.90
8736;DHT22;4404;49.308;12.178;2023-07-16T07:56:17;19.60;99.90
8736;DHT22;4404;49.308;12.178;2023-07-16T07:58:19;19.70;99.90
8736;DHT22;4404;49.308;12.178;2023-07-16T08:00:23;20.00;99.90
8736;DHT22;4404;49.308;12.178;2023-07-16T08:02:25;20.00;99.90
8736;DHT22;4404;49.308;12.178;2023-07-16T08:04:27;20.20;99.90
8736;DHT22;4404;49.308;12.178;2023-07-16T08:06:31;20.30;99.90
8736;DHT22;4404;49.308;12.178;2023-07-16T08:08:34;20.40;99.90
8736;DHT22;4404;49.308;12.178;2023-07-16T08:10:38;20.30;99.90
8736;DHT22;4404;49.308;12.178;2023-07-16T08:12:41;20.40;99.90
8736;DHT22;4404;49.308;12.178;2023-07-16T08:14:43;20.40;99.90
8736;DHT22;4404;49.308;12.178;2023-07-16T08:16:45;20.10;99.90
8736;DHT22;4404;49.308;12.178;2023-07-16T08:18:48;20.20;99.90
8736;DHT22;4404;49.308;12.178;2023-07-16T08:20:50;19.90;99.90
8736;DHT22;4404;49.308;12.178;2023-07-16T08:22:52;19.80;99.90
8736;DHT22;4404;49.308;12.178;2023-07-16T08:24:54;19.80;99.90
8736;DHT22;4404;49.308;12.178;2023-07-16T08:26:58;19.90;99.90
8736;DHT22;4404;49.308;12.178;2023-07-16T08:29:00;19.90;99.90
8736;DHT22;4404;49.308;12.178;2023-07-16T08:31:03;19.70;99.90
8736;DHT22;4404;49.308;12.178;2023-07-16T08:33:05;19.90;99.90
8736;DHT22;4404;49.308;12.178;2023-07-16T08:35:08;19.80;99.90
8736;DHT22;4404;49.308;12.178;2023-07-16T08:37:16;19.80;99.90
8736;DHT22;4404;49.308;12.178;2023-07-16T08:39:18;19.80;99.90
8736;DHT22;4404;49.308;12.178;2023-07-16T08:41:20;20.00;99.90
8736;DHT22;4404;49.308;12.178;2023-07-16T08:43:24;20.30;99.90
8736;DHT22;4404;49.308;12.178;2023-07-16T08:45:29;20.50;99.90
8736;DHT22;4404;49.308;12.178;2023-07-16T08:47:31;20.50;99.90
8736;DHT22;4404;49.308;12.178;2023-07-16T08:49:35;20.40;99.90
8736;DHT22;4404;49.308;12.178;2023-07-16T08:51:38;20.40;99.90
8736;DHT22;4404;49.308;12.178;2023-07-16T08:53:43;20.30;99.90
8736;DHT22;4404;49.308;12.178;2023-07-16T08:55:45;20.20;99.90
8736;DHT22;4404;49.308;12.178;2023-07-16T08:57:48;20.10;99.90
8736;DHT22;4404;49.308;12.178;2023-07-16T08:59:52;19.90;99.90
8736;DHT22;4404;49.308;12.178;2023-07-16T09:01:54;20.00;99.90
8736;DHT22;4404;49.308;12.178;2023-07-16T09:03:58;20.10;99.90
8736;DHT22;4404;49.308;12.178;2023-07-16T09:06:01;20.20;99.90
8736;DHT22;4404;49.308;12.178;2023-07-16T09:08:04;20.20;99.90
8736;DHT22;4404;49.308;12.178;2023-07-16T09:10:08;20.30;99.90
8736;DHT22;4404;49.308;12.178;2023-07-16T09:12:13;20.50;99.90
8736;DHT22;4404;49.308;12.178;2023-07-16T09:14:16;20.60;99.90
8736;DHT22;4404;49.308;12.178;2023-07-16T09:16:21;20.30;99.90
8736;DHT22;4404;49.308;12.178;2023-07-16T09:18:25;20.30;99.90
8736;DHT22;4404;49.308;12.178;2023-07-16T09:20:27;20.30;99.90
8736;DHT22;4404;49.308;12.178;2023-07-16T09:22:31;20.10;99.90
8736;DHT22;4404;49.308;12.178;2023-07-16T09:24:33;19.90;99.90
8736;DHT22;4404;49.308;12.178;2023-07-16T09:26:37;20.00;99.90
8736;DHT22;4404;49.308;12.178;2023-07-16T09:28:40;19.90;99.90
8736;DHT22;4404;49.308;12.178;2023-07-16T09:30:42;19.90;99.90
8736;DHT22;4404;49.308;12.178;2023-07-16T09:32:46;19.80;99.90
8736;DHT22;4404;49.308;12.178;2023-07-16T09:34:49;20.00;99.90
8736;DHT22;4404;49.308;12.178;2023-07-16T09:36:52;20.10;99.90
8736;DHT22;4404;49.308;12.178;2023-07-16T09:38:55;20.30;99.90
8736;DHT22;4404;49.308;12.178;2023-07-16T09:40:59;20.40;99.90
8736;DHT22;4404;49.308;12.178;2023-07-16T09:43:01;20.50;99.90
8736;DHT22;4404;49.308;12.178;2023-07-16T09:45:04;20.50;99.90
8736;DHT22;4404;49.308;12.178;2023-07-16T09:47:07;20.50;99.90
8736;DHT22;4404;49.308;12.178;2023-07-16T09:49:11;20.70;99.90
8736;DHT22;4404;49.308;12.178;2023-07-16T09:51:16;20.60;99.90
8736;DHT22;4404;49.308;12.178;2023-07-16T09:53:19;20.50;99.90
8736;DHT22;4404;49.308;12.178;2023-07-16T09:55:23;20.70;99.90
8736;DHT22;4404;49.308;12.178;2023-07-16T09:57:27;21.00;99.90
8736;DHT22;4404;49.308;12.178;2023-07-16T09:59:31;20.80;99.90
8736;DHT22;4404;49.308;12.178;2023-07-16T10:01:36;20.80;99.90
8736;DHT22;4404;49.308;12.178;2023-07-16T10:03:48;21.00;99.90
8736;DHT22;4404;49.308;12.178;2023-07-16T10:05:52;21.00;99.90
8736;DHT22;4404;49.308;12.178;2023-07-16T10:07:55;20.90;99.90
8736;DHT22;4404;49.308;12.178;2023-07-16T10:10:00;20.90;99.90
8736;DHT22;4404;49.308;12.178;2023-07-16T10:12:15;21.00;99.90
8736;DHT22;4404;49.308;12.178;2023-07-16T10:14:25;21.00;99.90
8736;DHT22;4404;49.308;12.178;2023-07-16T10:16:35;21.10;99.90
8736;DHT22;4404;49.308;12.178;2023-07-16T10:18:38;21.30;99.90
8736;DHT22;4404;49.308;12.178;2023-07-16T10:20:40;21.30;99.90
8736;DHT22;4404;49.308;12.178;2023-07-16T10:22:48;21.20;99.90
8736;DHT22;4404;49.308;12.178;2023-07-16T10:24:52;21.20;99.90
8736;DHT22;4404;49.308;12.178;2023-07-16T10:26:54;21.40;99.90
8736;DHT22;4404;49.308;12.178;2023-07-16T10:28:58;21.60;99.90
8736;DHT22;4404;49.308;12.178;2023-07-16T10:31:00;21.80;99.90
8736;DHT22;4404;49.308;12.178;2023-07-16T10:33:03;21.80;99.90
8736;DHT22;4404;49.308;12.178;2023-07-16T10:35:13;21.90;99.90
8736;DHT22;4404;49.308;12.178;2023-07-16T10:37:16;21.80;99.90
8736;DHT22;4404;49.308;12.178;2023-07-16T10:39:20;22.10;99.90
8736;DHT22;4404;49.308;12.178;2023-07-16T10:41:22;22.40;99.90
8736;DHT22;4404;49.308;12.178;2023-07-16T10:43:25;22.60;99.90
8736;DHT22;4404;49.308;12.178;2023-07-16T10:45:29;22.80;99.90
8736;DHT22;4404;49.308;12.178;2023-07-16T10:47:34;23.20;99.90
8736;DHT22;4404;49.308;12.178;2023-07-16T10:49:39;23.20;99.90
8736;DHT22;4404;49.308;12.178;2023-07-16T10:51:42;23.40;99.90
8736;DHT22;4404;49.308;12.178;2023-07-16T10:53:44;23.10;99.90
8736;DHT22;4404;49.308;12.178;2023-07-16T10:55:48;22.60;99.90
8736;DHT22;4404;49.308;12.178;2023-07-16T10:57:50;22.50;99.90
8736;DHT22;4404;49.308;12.178;2023-07-16T10:59:56;22.40;99.90
8736;DHT22;4404;49.308;12.178;2023-07-16T11:01:59;22.60;99.90
8736;DHT22;4404;49.308;12.178;2023-07-16T11:04:01;22.70;99.90
8736;DHT22;4404;49.308;12.178;2023-07-16T11:06:06;22.90;99.90
8736;DHT22;4404;49.308;12.178;2023-07-16T11:08:08;23.10;99.90
8736;DHT22;4404;49.308;12.178;2023-07-16T11:10:10;23.00;99.90
8736;DHT22;4404;49.308;12.178;2023-07-16T11:12:15;22.70;99.90
8736;DHT22;4404;49.308;12.178;2023-07-16T11:14:19;22.50;99.90
8736;DHT22;4404;49.308;12.178;2023-07-16T11:16:21;22.80;99.90
8736;DHT22;4404;49.308;12.178;2023-07-16T11:18:23;22.80;99.90
8736;DHT22;4404;49.308;12.178;2023-07-16T11:20:26;22.80;99.90
8736;DHT22;4404;49.308;12.178;2023-07-16T11:22:28;23.10;99.90
8736;DHT22;4404;49.308;12.178;2023-07-16T11:24:36;23.10;99.90
8736;DHT22;4404;49.308;12.178;2023-07-16T11:26:39;23.50;99.90
8736;DHT22;4404;49.308;12.178;2023-07-16T11:28:42;23.60;99.90
8736;DHT22;4404;49.308;12.178;2023-07-16T11:30:44;23.70;99.90
8736;DHT22;4404;49.308;12.178;2023-07-16T11:32:47;23.70;99.90
8736;DHT22;4404;49.308;12.178;2023-07-16T11:34:53;24.00;99.90
8736;DHT22;4404;49.308;12.178;2023-07-16T11:36:54;23.80;99.90
8736;DHT22;4404;49.308;12.178;2023-07-16T11:39:18;23.70;99.90
8736;DHT22;4404;49.308;12.178;2023-07-16T11:41:21;23.80;99.90
8736;DHT22;4404;49.308;12.178;2023-07-16T11:43:27;23.90;99.90
8736;DHT22;4404;49.308;12.178;2023-07-16T11:45:31;23.70;99.90
8736;DHT22;4404;49.308;12.178;2023-07-16T11:47:34;23.90;99.90
8736;DHT22;4404;49.308;12.178;2023-07-16T11:49:43;23.90;99.90
8736;DHT22;4404;49.308;12.178;2023-07-16T11:51:45;24.10;99.90
8736;DHT22;4404;49.308;12.178;2023-07-16T11:53:48;23.70;99.90
8736;DHT22;4404;49.308;12.178;2023-07-16T11:55:50;23.60;99.90
8736;DHT22;4404;49.308;12.178;2023-07-16T11:57:53;23.50;99.90
8736;DHT22;4404;49.308;12.178;2023-07-16T11:59:57;23.30;99.90
8736;DHT22;4404;49.308;12.178;2023-07-16T12:02:01;23.50;99.90
8736;DHT22;4404;49.308;12.178;2023-07-16T12:04:04;23.40;99.90
8736;DHT22;4404;49.308;12.178;2023-07-16T12:06:50;23.40;99.90
8736;DHT22;4404;49.308;12.178;2023-07-16T12:12:28;23.10;99.90
8736;DHT22;4404;49.308;12.178;2023-07-16T12:15:00;23.10;99.90
8736;DHT22;4404;49.308;12.178;2023-07-16T12:17:07;22.80;99.90
8736;DHT22;4404;49.308;12.178;2023-07-16T12:19:10;22.90;99.90
8736;DHT22;4404;49.308;12.178;2023-07-16T12:21:12;23.20;99.90
8736;DHT22;4404;49.308;12.178;2023-07-16T12:23:23;23.40;99.90
8736;DHT22;4404;49.308;12.178;2023-07-16T12:25:53;23.50;99.90
8736;DHT22;4404;49.308;12.178;2023-07-16T12:27:56;23.10;99.90
8736;DHT22;4404;49.308;12.178;2023-07-16T12:29:58;23.30;99.90
8736;DHT22;4404;49.308;12.178;2023-07-16T12:32:01;23.20;99.90
8736;DHT22;4404;49.308;12.178;2023-07-16T12:34:05;23.30;99.90
8736;DHT22;4404;49.308;12.178;2023-07-16T12:36:07;23.50;99.90
8736;DHT22;4404;49.308;12.178;2023-07-16T12:38:08;23.80;99.90
8736;DHT22;4404;49.308;12.178;2023-07-16T12:40:22;24.40;99.90
8736;DHT22;4404;49.308;12.178;2023-07-16T12:42:41;24.80;99.90
8736;DHT22;4404;49.308;12.178;2023-07-16T12:44:43;25.50;99.90
8736;DHT22;4404;49.308;12.178;2023-07-16T12:46:46;26.10;99.90
8736;DHT22;4404;49.308;12.178;2023-07-16T12:48:49;26.20;99.90
8736;DHT22;4404;49.308;12.178;2023-07-16T12:50:54;26.30;99.90
8736;DHT22;4404;49.308;12.178;2023-07-16T12:52:57;26.30;99.90
8736;DHT22;4404;49.308;12.178;2023-07-16T12:54:59;26.00;99.90
8736;DHT22;4404;49.308;12.178;2023-07-16T12:57:02;25.50;99.90
8736;DHT22;4404;49.308;12.178;2023-07-16T12:59:05;25.00;99.90
8736;DHT22;4404;49.308;12.178;2023-07-16T13:01:10;24.80;99.90
8736;DHT22;4404;49.308;12.178;2023-07-16T13:03:16;25.10;99.90
8736;DHT22;4404;49.308;12.178;2023-07-16T13:05:18;25.50;99.90
8736;DHT22;4404;49.308;12.178;2023-07-16T13:07:22;25.70;99.90
8736;DHT22;4404;49.308;12.178;2023-07-16T13:09:24;25.80;99.90
8736;DHT22;4404;49.308;12.178;2023-07-16T13:11:53;26.30;99.90
8736;DHT22;4404;49.308;12.178;2023-07-16T13:14:06;26.60;99.90
8736;DHT22;4404;49.308;12.178;2023-07-16T13:16:09;27.50;99.90
8736;DHT22;4404;49.308;12.178;2023-07-16T13:18:31;27.80;99.90
8736;DHT22;4404;49.308;12.178;2023-07-16T13:20:35;27.90;99.90
8736;DHT22;4404;49.308;12.178;2023-07-16T13:22:49;27.90;99.90
8736;DHT22;4404;49.308;12.178;2023-07-16T13:25:18;27.30;99.90
8736;DHT22;4404;49.308;12.178;2023-07-16T13:28:23;27.00;99.90
8736;DHT22;4404;49.308;12.178;2023-07-16T13:31:24;26.90;99.90
8736;DHT22;4404;49.308;12.178;2023-07-16T13:33:40;27.30;99.90
8736;DHT22;4404;49.308;12.178;2023-07-16T13:35:43;26.90;99.90
8736;DHT22;4404;49.308;12.178;2023-07-16T13:37:46;26.80;99.90
8736;DHT22;4404;49.308;12.178;2023-07-16T13:39:49;26.80;99.90
8736;DHT22;4404;49.308;12.178;2023-07-16T13:41:51;26.30;99.90
8736;DHT22;4404;49.308;12.178;2023-07-16T13:43:52;25.80;99.90
8736;DHT22;4404;49.308;12.178;2023-07-16T13:45:57;26.00;99.90
8736;DHT22;4404;49.308;12.178;2023-07-16T13:48:02;25.50;99.90
8736;DHT22;4404;49.308;12.178;2023-07-16T13:50:05;25.40;99.90
8736;DHT22;4404;49.308;12.178;2023-07-16T13:52:22;25.30;99.90
8736;DHT22;4404;49.308;12.178;2023-07-16T13:54:46;25.50;99.90
8736;DHT22;4404;49.308;12.178;2023-07-16T13:57:08;25.60;99.90
8736;DHT22;4404;49.308;12.178;2023-07-16T13:59:53;26.00;99.90
8736;DHT22;4404;49.308;12.178;2023-07-16T14:02:00;26.70;99.90
8736;DHT22;4404;49.308;12.178;2023-07-16T14:04:12;27.10;99.90
8736;DHT22;4404;49.308;12.178;2023-07-16T14:06:21;27.50;99.90
8736;DHT22;4404;49.308;12.178;2023-07-16T14:08:27;27.60;99.90
8736;DHT22;4404;49.308;12.178;2023-07-16T14:10:31;27.20;99.90
8736;DHT22;4404;49.308;12.178;2023-07-16T14:12:42;26.60;99.90
8736;DHT22;4404;49.308;12.178;2023-07-16T14:14:47;26.50;99.90
8736;DHT22;4404;49.308;12.178;2023-07-16T14:17:21;26.30;99.90
8736;DHT22;4404;49.308;12.178;2023-07-16T14:20:15;26.10;99.90
8736;DHT22;4404;49.308;12.178;2023-07-16T14:22:22;25.90;99.90
8736;DHT22;4404;49.308;12.178;2023-07-16T14:24:28;26.00;99.90
8736;DHT22;4404;49.308;12.178;2023-07-16T14:26:32;26.00;99.90
8736;DHT22;4404;49.308;12.178;2023-07-16T14:28:34;26.00;99.90
8736;DHT22;4404;49.308;12.178;2023-07-16T14:30:38;26.20;99.90
8736;DHT22;4404;49.308;12.178;2023-07-16T14:32:40;26.00;99.90
8736;DHT22;4404;49.308;12.178;2023-07-16T14:34:43;25.70;99.90
8736;DHT22;4404;49.308;12.178;2023-07-16T14:36:45;25.80;99.90
8736;DHT22;4404;49.308;12.178;2023-07-16T14:38:51;25.90;99.90
8736;DHT22;4404;49.308;12.178;2023-07-16T14:40:59;25.50;99.90
8736;DHT22;4404;49.308;12.178;2023-07-16T14:43:04;25.40;99.90
8736;DHT22;4404;49.308;12.178;2023-07-16T14:45:08;25.50;99.90
8736;DHT22;4404;49.308;12.178;2023-07-16T14:47:11;25.60;99.90
8736;DHT22;4404;49.308;12.178;2023-07-16T14:49:14;25.70;99.90
8736;DHT22;4404;49.308;12.178;2023-07-16T14:51:16;25.60;99.90
8736;DHT22;4404;49.308;12.178;2023-07-16T14:53:19;25.30;99.90
8736;DHT22;4404;49.308;12.178;2023-07-16T14:55:21;25.30;99.90
8736;DHT22;4404;49.308;12.178;2023-07-16T14:57:25;25.30;99.90
8736;DHT22;4404;49.308;12.178;2023-07-16T14:59:28;25.60;99.90
8736;DHT22;4404;49.308;12.178;2023-07-16T15:01:31;25.70;99.90
8736;DHT22;4404;49.308;12.178;2023-07-16T15:03:34;25.90;99.90
8736;DHT22;4404;49.308;12.178;2023-07-16T15:05:38;26.00;99.90
8736;DHT22;4404;49.308;12.178;2023-07-16T15:07:44;26.20;99.90
8736;DHT22;4404;49.308;12.178;2023-07-16T15:09:45;26.50;99.90
8736;DHT22;4404;49.308;12.178;2023-07-16T15:11:49;26.40;99.90
8736;DHT22;4404;49.308;12.178;2023-07-16T15:13:51;26.40;99.90
8736;DHT22;4404;49.308;12.178;2023-07-16T15:15:56;26.10;99.90
8736;DHT22;4404;49.308;12.178;2023-07-16T15:17:59;26.10;99.90
8736;DHT22;4404;49.308;12.178;2023-07-16T15:20:02;26.10;99.90
8736;DHT22;4404;49.308;12.178;2023-07-16T15:22:05;25.90;99.90
8736;DHT22;4404;49.308;12.178;2023-07-16T15:24:10;26.00;99.90
8736;DHT22;4404;49.308;12.178;2023-07-16T15:26:13;26.20;99.90
8736;DHT22;4404;49.308;12.178;2023-07-16T15:28:15;26.10;99.90
8736;DHT22;4404;49.308;12.178;2023-07-16T15:30:18;26.10;99.90
8736;DHT22;4404;49.308;12.178;2023-07-16T15:32:22;26.00;99.90
8736;DHT22;4404;49.308;12.178;2023-07-16T15:34:24;25.80;99.90
8736;DHT22;4404;49.308;12.178;2023-07-16T15:36:28;25.90;99.90
8736;DHT22;4404;49.308;12.178;2023-07-16T15:38:33;26.10;99.90
8736;DHT22;4404;49.308;12.178;2023-07-16T15:40:36;26.00;99.90
8736;DHT22;4404;49.308;12.178;2023-07-16T15:42:37;26.10;99.90
8736;DHT22;4404;49.308;12.178;2023-07-16T15:44:40;26.10;99.90
8736;DHT22;4404;49.308;12.178;2023-07-16T15:46:43;25.90;99.90
8736;DHT22;4404;49.308;12.178;2023-07-16T15:48:47;25.90;99.90
8736;DHT22;4404;49.308;12.178;2023-07-16T15:50:56;26.00;99.90
8736;DHT22;4404;49.308;12.178;2023-07-16T15:52:59;25.90;99.90
8736;DHT22;4404;49.308;12.178;2023-07-16T15:55:04;26.00;99.90
8736;DHT22;4404;49.308;12.178;2023-07-16T15:57:07;25.70;99.90
8736;DHT22;4404;49.308;12.178;2023-07-16T15:59:10;25.60;99.90
8736;DHT22;4404;49.308;12.178;2023-07-16T16:01:16;25.60;99.90
8736;DHT22;4404;49.308;12.178;2023-07-16T16:03:18;25.70;99.90
8736;DHT22;4404;49.308;12.178;2023-07-16T16:05:22;25.80;99.90
8736;DHT22;4404;49.308;12.178;2023-07-16T16:07:24;25.90;99.90
8736;DHT22;4404;49.308;12.178;2023-07-16T16:09:27;25.80;99.90
8736;DHT22;4404;49.308;12.178;2023-07-16T16:11:29;26.10;99.90
8736;DHT22;4404;49.308;12.178;2023-07-16T16:13:33;26.20;99.90
8736;DHT22;4404;49.308;12.178;2023-07-16T16:15:36;26.10;99.90
8736;DHT22;4404;49.308;12.178;2023-07-16T16:17:38;26.10;99.90
8736;DHT22;4404;49.308;12.178;2023-07-16T16:19:44;26.20;99.90
8736;DHT22;4404;49.308;12.178;2023-07-16T16:21:47;26.30;99.90
8736;DHT22;4404;49.308;12.178;2023-07-16T16:23:50;26.40;99.90
8736;DHT22;4404;49.308;12.178;2023-07-16T16:25:52;26.50;99.90
8736;DHT22;4404;49.308;12.178;2023-07-16T16:27:55;26.60;99.90
8736;DHT22;4404;49.308;12.178;2023-07-16T16:29:57;26.40;99.90
8736;DHT22;4404;49.308;12.178;2023-07-16T16:32:00;26.30;99.90
8736;DHT22;4404;49.308;12.178;2023-07-16T16:34:03;26.30;99.90
8736;DHT22;4404;49.308;12.178;2023-07-16T16:36:09;26.30;99.90
8736;DHT22;4404;49.308;12.178;2023-07-16T16:38:13;26.50;99.90
8736;DHT22;4404;49.308;12.178;2023-07-16T16:40:16;26.60;99.90
8736;DHT22;4404;49.308;12.178;2023-07-16T16:42:18;26.50;99.90
8736;DHT22;4404;49.308;12.178;2023-07-16T16:44:21;26.40;99.90
8736;DHT22;4404;49.308;12.178;2023-07-16T16:46:23;26.50;99.90
8736;DHT22;4404;49.308;12.178;2023-07-16T16:48:26;26.20;99.90
8736;DHT22;4404;49.308;12.178;2023-07-16T16:50:28;26.10;99.90
8736;DHT22;4404;49.308;12.178;2023-07-16T16:52:33;25.90;99.90
8736;DHT22;4404;49.308;12.178;2023-07-16T16:54:39;25.80;99.90
8736;DHT22;4404;49.308;12.178;2023-07-16T16:56:42;25.80;99.90
8736;DHT22;4404;49.308;12.178;2023-07-16T16:58:46;25.70;99.90
8736;DHT22;4404;49.308;12.178;2023-07-16T17:00:48;25.70;99.90
8736;DHT22;4404;49.308;12.178;2023-07-16T17:02:52;26.00;99.90
8736;DHT22;4404;49.308;12.178;2023-07-16T17:04:55;26.10;99.90
8736;DHT22;4404;49.308;12.178;2023-07-16T17:06:57;26.00;99.90
8736;DHT22;4404;49.308;12.178;2023-07-16T17:09:01;25.90;99.90
8736;DHT22;4404;49.308;12.178;2023-07-16T17:11:06;26.10;99.90
8736;DHT22;4404;49.308;12.178;2023-07-16T17:13:08;26.40;99.90
8736;DHT22;4404;49.308;12.178;2023-07-16T17:15:11;26.60;99.90
8736;DHT22;4404;49.308;12.178;2023-07-16T17:17:14;26.20;99.90
8736;DHT22;4404;49.308;12.178;2023-07-16T17:19:16;26.00;99.90
8736;DHT22;4404;49.308;12.178;2023-07-16T17:21:18;26.20;99.90
8736;DHT22;4404;49.308;12.178;2023-07-16T17:23:21;26.40;99.90
8736;DHT22;4404;49.308;12.178;2023-07-16T17:25:23;26.40;99.90
8736;DHT22;4404;49.308;12.178;2023-07-16T17:27:27;26.30;99.90
8736;DHT22;4404;49.308;12.178;2023-07-16T17:29:28;26.30;99.90
8736;DHT22;4404;49.308;12.178;2023-07-16T17:31:31;25.90;99.90
8736;DHT22;4404;49.308;12.178;2023-07-16T17:33:34;25.70;99.90
8736;DHT22;4404;49.308;12.178;2023-07-16T17:35:38;25.80;99.90
8736;DHT22;4404;49.308;12.178;2023-07-16T17:37:39;25.80;99.90
8736;DHT22;4404;49.308;12.178;2023-07-16T17:39:42;25.70;99.90
8736;DHT22;4404;49.308;12.178;2023-07-16T17:41:57;25.60;99.90
8736;DHT22;4404;49.308;12.178;2023-07-16T17:44:02;25.70;99.90
8736;DHT22;4404;49.308;12.178;2023-07-16T17:46:05;25.80;99.90
8736;DHT22;4404;49.308;12.178;2023-07-16T17:48:09;26.00;99.90
8736;DHT22;4404;49.308;12.178;2023-07-16T17:50:11;25.90;99.90
8736;DHT22;4404;49.308;12.178;2023-07-16T17:52:14;25.60;99.90
8736;DHT22;4404;49.308;12.178;2023-07-16T17:54:16;25.60;99.90
8736;DHT22;4404;49.308;12.178;2023-07-16T17:56:19;25.80;99.90
8736;DHT22;4404;49.308;12.178;2023-07-16T17:58:21;26.00;99.90
8736;DHT22;4404;49.308;12.178;2023-07-16T18:00:29;26.10;99.90
8736;DHT22;4404;49.308;12.178;2023-07-16T18:02:34;26.10;99.90
8736;DHT22;4404;49.308;12.178;2023-07-16T18:04:37;25.90;99.90
8736;DHT22;4404;49.308;12.178;2023-07-16T18:06:40;25.70;99.90
8736;DHT22;4404;49.308;12.178;2023-07-16T18:08:45;25.60;99.90
8736;DHT22;4404;49.308;12.178;2023-07-16T18:10:46;25.60;99.90
8736;DHT22;4404;49.308;12.178;2023-07-16T18:12:49;25.70;99.90
8736;DHT22;4404;49.308;12.178;2023-07-16T18:14:51;25.70;99.90
8736;DHT22;4404;49.308;12.178;2023-07-16T18:16:56;25.70;99.90
8736;DHT22;4404;49.308;12.178;2023-07-16T18:18:58;25.30;99.90
8736;DHT22;4404;49.308;12.178;2023-07-16T18:21:01;25.20;99.90
8736;DHT22;4404;49.308;12.178;2023-07-16T18:23:03;25.20;99.90
8736;DHT22;4404;49.308;12.178;2023-07-16T18:25:07;25.20;99.90
8736;DHT22;4404;49.308;12.178;2023-07-16T18:27:09;25.20;99.90
8736;DHT22;4404;49.308;12.178;2023-07-16T18:29:12;25.10;99.90
8736;DHT22;4404;49.308;12.178;2023-07-16T18:31:14;25.00;99.90
8736;DHT22;4404;49.308;12.178;2023-07-16T18:33:18;25.10;99.90
8736;DHT22;4404;49.308;12.178;2023-07-16T18:35:21;25.30;99.90
8736;DHT22;4404;49.308;12.178;2023-07-16T18:37:23;25.30;99.90
8736;DHT22;4404;49.308;12.178;2023-07-16T18:39:26;25.30;99.90
8736;DHT22;4404;49.308;12.178;2023-07-16T18:41:28;25.30;99.90
8736;DHT22;4404;49.308;12.178;2023-07-16T18:43:31;25.30;99.90
8736;DHT22;4404;49.308;12.178;2023-07-16T18:45:33;25.20;99.90
8736;DHT22;4404;49.308;12.178;2023-07-16T18:47:35;25.10;99.90
8736;DHT22;4404;49.308;12.178;2023-07-16T18:49:39;25.10;99.90
8736;DHT22;4404;49.308;12.178;2023-07-16T18:51:42;25.10;99.90
8736;DHT22;4404;49.308;12.178;2023-07-16T18:53:47;24.90;99.90
8736;DHT22;4404;49.308;12.178;2023-07-16T18:55:49;24.80;99.90
8736;DHT22;4404;49.308;12.178;2023-07-16T18:57:51;24.70;99.90
8736;DHT22;4404;49.308;12.178;2023-07-16T18:59:54;24.60;99.90
8736;DHT22;4404;49.308;12.178;2023-07-16T19:01:56;24.50;99.90
8736;DHT22;4404;49.308;12.178;2023-07-16T19:03:58;24.30;99.90
8736;DHT22;4404;49.308;12.178;2023-07-16T19:06:05;24.20;99.90